createdAt,value
2018-11-11T00:00:10.363Z,130.30
2018-11-11T00:02:39.282Z,123.70
2018-11-11T00:05:07.037Z,132.40
2018-11-11T00:07:35.368Z,128.00
2018-11-11T00:10:03.712Z,124.60
2018-11-11T00:12:32.632Z,119.40
2018-11-11T00:15:00.387Z,120.97
2018-11-11T00:17:28.722Z,132.00
2018-11-11T00:19:57.640Z,125.80
2018-11-11T00:22:25.994Z,123.60
2018-11-11T00:24:54.341Z,122.60
2018-11-11T00:27:22.090Z,123.47
2018-11-11T00:29:50.421Z,130.00
2018-11-11T00:32:19.334Z,131.83
2018-11-11T00:34:47.672Z,130.93
2018-11-11T00:37:15.493Z,130.30
2018-11-11T00:39:44.444Z,130.83
2018-11-11T00:42:12.169Z,125.67
2018-11-11T00:44:41.084Z,124.60
2018-11-11T00:47:09.427Z,135.67
2018-11-11T00:49:37.195Z,124.70
2018-11-11T00:52:06.111Z,128.33
2018-11-11T00:54:34.451Z,122.93
2018-11-11T00:57:02.794Z,121.03
2018-11-11T00:59:31.124Z,126.23
2018-11-11T01:01:59.471Z,128.57
2018-11-11T01:04:27.225Z,139.53
2018-11-11T01:06:56.147Z,134.70
2018-11-11T01:09:24.480Z,128.37
2018-11-11T01:11:52.243Z,119.00
2018-11-11T01:14:21.164Z,117.50
2018-11-11T01:16:48.917Z,121.10
2018-11-11T01:19:17.251Z,118.33
2018-11-11T01:21:45.593Z,132.40
2018-11-11T01:24:14.505Z,128.03
2018-11-11T01:26:42.253Z,125.37
2018-11-11T01:29:11.175Z,128.97
2018-11-11T01:31:39.536Z,133.60
2018-11-11T01:34:07.293Z,140.77
2018-11-11T01:36:36.253Z,125.57
2018-11-11T01:39:04.005Z,126.87
2018-11-11T01:41:32.925Z,124.83
2018-11-11T01:44:00.681Z,126.03
2018-11-11T01:46:29.013Z,122.70
2018-11-11T01:48:57.926Z,123.77
2018-11-11T01:51:25.685Z,113.07
2018-11-11T01:53:54.024Z,113.87
2018-11-11T01:56:22.984Z,113.83
2018-11-11T01:58:51.337Z,111.20
2018-11-11T02:01:19.673Z,121.77
2018-11-11T02:03:48.006Z,115.27
2018-11-11T02:06:16.341Z,112.70
2018-11-11T02:08:44.673Z,121.47
2018-11-11T02:11:13.021Z,119.60
2018-11-11T02:13:41.935Z,118.30
2018-11-11T02:16:10.269Z,120.97
2018-11-11T02:18:38.618Z,108.80
2018-11-11T02:21:06.976Z,111.23
2018-11-11T02:23:35.291Z,107.13
2018-11-11T02:26:03.115Z,101.87
2018-11-11T02:28:31.376Z,95.47
2018-11-11T02:31:00.280Z,94.07
2018-11-11T02:33:28.597Z,99.20
2018-11-11T02:35:56.937Z,100.53
2018-11-11T02:38:24.728Z,101.50
2018-11-11T02:40:53.057Z,100.37
2018-11-11T02:43:21.975Z,104.53
2018-11-11T02:45:49.719Z,109.57
2018-11-11T02:48:18.648Z,106.37
2018-11-11T02:50:46.388Z,100.87
2018-11-11T02:53:15.300Z,102.87
2018-11-11T02:55:43.633Z,99.77
2018-11-11T02:58:11.953Z,98.80
2018-11-11T03:00:39.693Z,95.00
2018-11-11T03:03:08.598Z,94.40
2018-11-11T03:05:36.338Z,87.57
2018-11-11T03:08:04.659Z,94.40
2018-11-11T03:10:33.559Z,85.83
2018-11-11T03:13:01.494Z,93.50
2018-11-11T03:15:30.138Z,91.37
2018-11-11T03:17:57.965Z,88.97
2018-11-11T03:20:26.872Z,88.23
2018-11-11T03:22:55.189Z,85.90
2018-11-11T03:25:23.513Z,88.83
2018-11-11T03:27:51.267Z,85.10
2018-11-11T03:30:19.593Z,83.33
2018-11-11T03:32:47.928Z,77.80
2018-11-11T03:35:16.829Z,87.17
2018-11-11T03:37:45.143Z,82.67
2018-11-11T03:40:13.513Z,83.40
2018-11-11T03:42:41.253Z,82.20
2018-11-11T03:45:10.162Z,82.93
2018-11-11T03:47:37.899Z,78.30
2018-11-11T03:50:06.805Z,77.87
2018-11-11T03:52:35.142Z,84.00
2018-11-11T03:55:02.893Z,82.57
2018-11-11T03:57:31.802Z,81.73
2018-11-11T04:00:00.125Z,74.70
2018-11-11T04:02:27.879Z,75.37
2018-11-11T04:04:56.204Z,65.87
2018-11-11T04:07:25.367Z,63.80
2018-11-11T04:09:53.690Z,59.73
2018-11-11T04:12:22.594Z,62.73
2018-11-11T04:14:50.920Z,58.90
2018-11-11T04:17:19.243Z,59.63
2018-11-11T04:19:46.981Z,55.83
2018-11-11T04:22:15.311Z,57.40
2018-11-11T04:24:44.212Z,52.70
2018-11-11T04:27:12.535Z,54.03
2018-11-11T04:29:40.860Z,55.17
2018-11-11T04:32:08.604Z,57.63
2018-11-11T04:34:36.916Z,54.47
2018-11-11T04:37:05.813Z,57.63
2018-11-11T04:39:33.559Z,54.70
2018-11-11T04:42:01.935Z,55.30
2018-11-11T04:44:30.257Z,59.03
2018-11-11T04:46:59.438Z,109.53
2018-11-11T04:49:27.199Z,124.50
2018-11-11T04:51:55.525Z,55.63
2018-11-11T04:54:24.427Z,54.27
2018-11-11T04:56:52.181Z,49.77
2018-11-11T04:59:21.088Z,53.13
2018-11-11T05:01:49.409Z,49.27
2018-11-11T05:04:17.732Z,49.07
2018-11-11T05:06:47.053Z,50.07
2018-11-11T05:09:14.125Z,46.47
2018-11-11T05:11:42.476Z,50.50
2018-11-11T05:14:10.798Z,50.37
2018-11-11T05:16:39.135Z,50.07
2018-11-11T05:19:07.464Z,49.60
2018-11-11T05:21:35.785Z,47.33
2018-11-11T05:24:04.099Z,47.87
2018-11-11T05:26:32.438Z,43.83
2018-11-11T05:29:01.159Z,98.67
2018-11-11T05:31:29.079Z,54.87
2018-11-11T05:33:57.922Z,43.93
2018-11-11T05:36:26.304Z,43.50
2018-11-11T05:38:54.633Z,43.50
2018-11-11T05:41:22.959Z,42.23
2018-11-11T05:43:51.328Z,41.37
2018-11-11T05:46:19.649Z,42.13
2018-11-11T05:48:47.401Z,42.20
2018-11-11T05:51:16.332Z,47.57
2018-11-11T05:53:44.563Z,45.67
2018-11-11T05:56:13.472Z,43.93
2018-11-11T05:58:41.798Z,42.97
2018-11-11T06:01:10.124Z,45.03
2018-11-11T06:03:38.441Z,80.33
2018-11-11T06:06:06.773Z,45.03
2018-11-11T06:08:35.089Z,47.37
2018-11-11T06:11:02.838Z,45.93
2018-11-11T06:13:31.153Z,44.93
2018-11-11T06:15:59.476Z,48.10
2018-11-11T06:18:28.378Z,47.90
2018-11-11T06:20:56.115Z,44.73
2018-11-11T06:23:24.443Z,48.40
2018-11-11T06:25:52.783Z,51.03
2018-11-11T06:28:21.101Z,46.87
2018-11-11T06:30:50.005Z,49.10
2018-11-11T06:33:18.327Z,45.93
2018-11-11T06:35:46.652Z,51.87
2018-11-11T06:38:14.389Z,50.77
2018-11-11T06:40:43.303Z,48.90
2018-11-11T06:43:11.631Z,50.57
2018-11-11T06:45:40.002Z,48.47
2018-11-11T06:48:08.370Z,47.97
2018-11-11T06:50:36.681Z,48.83
2018-11-11T06:53:05.031Z,49.33
2018-11-11T06:55:32.777Z,48.00
2018-11-11T06:58:01.153Z,63.00
2018-11-11T07:00:30.005Z,63.13
2018-11-11T07:03:01.686Z,51.10
2018-11-11T07:05:30.045Z,47.40
2018-11-11T07:07:58.373Z,55.57
2018-11-11T07:10:26.705Z,50.30
2018-11-11T07:12:55.613Z,52.90
2018-11-11T07:15:23.932Z,54.97
2018-11-11T07:17:51.679Z,54.27
2018-11-11T07:20:20.009Z,51.57
2018-11-11T07:22:48.924Z,51.53
2018-11-11T07:25:16.672Z,51.03
2018-11-11T07:27:45.565Z,50.00
2018-11-11T07:30:13.885Z,53.03
2018-11-11T07:32:42.201Z,53.07
2018-11-11T07:35:10.518Z,58.40
2018-11-11T07:37:38.867Z,79.03
2018-11-11T07:40:07.209Z,55.07
2018-11-11T07:42:35.530Z,58.73
2018-11-11T07:45:03.281Z,54.63
2018-11-11T07:47:31.638Z,55.63
2018-11-11T07:49:59.968Z,59.23
2018-11-11T07:52:28.889Z,58.07
2018-11-11T07:54:57.552Z,62.67
2018-11-11T07:57:24.984Z,58.10
2018-11-11T07:59:53.900Z,62.53
2018-11-11T08:02:21.816Z,59.77
2018-11-11T08:04:49.984Z,61.60
2018-11-11T08:07:18.893Z,60.47
2018-11-11T08:09:47.225Z,57.93
2018-11-11T08:12:14.973Z,92.10
2018-11-11T08:14:43.299Z,69.17
2018-11-11T08:17:11.629Z,58.73
2018-11-11T08:19:40.540Z,55.60
2018-11-11T08:22:08.871Z,58.37
2018-11-11T08:24:36.620Z,63.87
2018-11-11T08:27:05.664Z,63.53
2018-11-11T08:29:33.432Z,60.60
2018-11-11T08:32:02.476Z,60.37
2018-11-11T08:34:30.744Z,62.53
2018-11-11T08:36:58.485Z,62.67
2018-11-11T08:39:27.401Z,58.63
2018-11-11T08:41:55.739Z,56.13
2018-11-11T08:44:23.476Z,63.60
2018-11-11T08:46:51.799Z,61.77
2018-11-11T08:49:20.165Z,58.70
2018-11-11T08:51:48.488Z,65.30
2018-11-11T08:54:16.875Z,71.37
2018-11-11T08:56:45.735Z,99.53
2018-11-11T08:59:14.068Z,64.53
2018-11-11T09:01:42.649Z,79.73
2018-11-11T09:04:10.195Z,70.47
2018-11-11T09:06:38.517Z,64.10
2018-11-11T09:09:07.427Z,62.67
2018-11-11T09:11:35.848Z,72.43
2018-11-11T09:14:03.512Z,139.67
2018-11-11T09:16:31.852Z,185.10
2018-11-11T09:19:00.185Z,69.40
2018-11-11T09:21:29.244Z,70.50
2018-11-11T09:23:56.848Z,62.07
2018-11-11T09:26:25.773Z,76.07
2018-11-11T09:28:54.099Z,67.50
2018-11-11T09:31:23.029Z,66.53
2018-11-11T09:33:51.387Z,67.13
2018-11-11T09:36:19.719Z,70.40
2018-11-11T09:38:48.084Z,68.07
2018-11-11T09:41:16.385Z,67.37
2018-11-11T09:43:44.714Z,73.57
2018-11-11T09:46:13.040Z,73.07
2018-11-11T09:48:40.798Z,70.17
2018-11-11T09:51:09.770Z,73.17
2018-11-11T09:53:38.098Z,74.33
2018-11-11T09:56:06.810Z,69.73
2018-11-11T09:58:35.182Z,76.83
2018-11-11T10:01:03.473Z,78.70
2018-11-11T10:03:31.807Z,76.33
2018-11-11T10:06:00.140Z,77.63
2018-11-11T10:08:28.472Z,77.43
2018-11-11T10:10:56.822Z,72.73
2018-11-11T10:13:25.476Z,79.57
2018-11-11T10:15:53.817Z,73.93
2018-11-11T10:18:23.081Z,69.60
2018-11-11T10:20:51.498Z,79.77
2018-11-11T10:23:20.337Z,77.57
2018-11-11T10:25:47.486Z,72.77
2018-11-11T10:28:16.411Z,75.47
2018-11-11T10:30:44.748Z,74.50
2018-11-11T10:33:13.310Z,81.20
2018-11-11T10:35:41.647Z,76.53
2018-11-11T10:38:10.639Z,79.57
2018-11-11T10:40:38.967Z,75.07
2018-11-11T10:43:07.296Z,78.97
2018-11-11T10:45:35.631Z,72.30
2018-11-11T10:48:03.980Z,79.27
2018-11-11T10:50:31.777Z,80.67
2018-11-11T10:53:00.740Z,79.87
2018-11-11T10:55:28.490Z,75.27
2018-11-11T10:57:57.402Z,76.70
2018-11-11T11:00:25.859Z,81.03
2018-11-11T11:02:53.502Z,78.80
2018-11-11T11:05:22.423Z,78.80
2018-11-11T11:07:52.213Z,71.90
2018-11-11T11:10:19.441Z,72.43
2018-11-11T11:12:47.180Z,70.07
2018-11-11T11:15:16.089Z,74.47
2018-11-11T11:17:43.836Z,74.57
2018-11-11T11:20:12.183Z,72.10
2018-11-11T11:22:41.142Z,73.27
2018-11-11T11:25:09.435Z,71.57
2018-11-11T11:27:37.774Z,68.30
2018-11-11T11:30:06.343Z,67.73
2018-11-11T11:32:34.449Z,68.40
2018-11-11T11:35:02.217Z,72.57
2018-11-11T11:37:31.161Z,68.70
2018-11-11T11:39:58.926Z,72.00
2018-11-11T11:42:27.254Z,71.20
2018-11-11T11:44:56.162Z,70.80
2018-11-11T11:47:23.977Z,73.17
2018-11-11T11:49:52.854Z,76.20
2018-11-11T11:52:21.226Z,75.43
2018-11-11T11:54:48.926Z,76.60
2018-11-11T11:57:17.851Z,76.03
2018-11-11T11:59:46.196Z,70.50
2018-11-11T12:02:14.052Z,73.67
2018-11-11T12:04:42.908Z,71.67
2018-11-11T12:07:10.651Z,73.50
2018-11-11T12:09:39.564Z,81.13
2018-11-11T12:12:07.899Z,76.53
2018-11-11T12:14:36.237Z,80.30
2018-11-11T12:17:04.024Z,84.83
2018-11-11T12:19:32.906Z,90.80
2018-11-11T12:22:00.662Z,69.10
2018-11-11T12:24:29.581Z,82.57
2018-11-11T12:26:57.915Z,74.87
2018-11-11T12:29:25.685Z,72.83
2018-11-11T12:31:54.605Z,69.83
2018-11-11T12:34:22.933Z,71.67
2018-11-11T12:36:50.682Z,71.20
2018-11-11T12:39:19.677Z,70.00
2018-11-11T12:41:47.928Z,69.17
2018-11-11T12:44:16.269Z,70.93
2018-11-11T12:46:44.622Z,69.87
2018-11-11T12:49:12.993Z,72.70
2018-11-11T12:51:40.794Z,73.20
2018-11-11T12:54:09.637Z,71.30
2018-11-11T12:56:38.023Z,69.80
2018-11-11T12:59:05.801Z,74.67
2018-11-11T13:01:34.709Z,70.30
2018-11-11T13:04:02.451Z,73.50
2018-11-11T13:06:30.769Z,76.77
2018-11-11T13:08:59.672Z,80.87
2018-11-11T13:11:27.454Z,81.17
2018-11-11T13:13:56.344Z,76.63
2018-11-11T13:16:24.640Z,81.73
2018-11-11T13:18:52.962Z,83.00
2018-11-11T13:21:21.283Z,87.17
2018-11-11T13:23:49.025Z,84.07
2018-11-11T13:26:17.348Z,83.13
2018-11-11T13:28:46.256Z,80.40
2018-11-11T13:31:13.992Z,93.43
2018-11-11T13:33:42.316Z,92.90
2018-11-11T13:36:10.644Z,89.13
2018-11-11T13:38:40.134Z,100.63
2018-11-11T13:41:08.186Z,88.97
2018-11-11T13:43:35.978Z,92.17
2018-11-11T13:46:04.316Z,83.57
2018-11-11T13:48:33.218Z,85.07
2018-11-11T13:51:00.973Z,83.33
2018-11-11T13:53:29.867Z,80.87
2018-11-11T13:55:58.264Z,77.07
2018-11-11T13:58:26.991Z,80.30
2018-11-11T14:00:54.498Z,85.30
2018-11-11T14:03:23.394Z,83.70
2018-11-11T14:05:51.142Z,79.77
2018-11-11T14:08:19.507Z,80.97
2018-11-11T14:10:48.447Z,87.20
2018-11-11T14:13:16.733Z,95.93
2018-11-11T14:15:45.071Z,86.93
2018-11-11T14:18:12.925Z,81.27
2018-11-11T14:20:41.155Z,80.30
2018-11-11T14:23:09.494Z,79.47
2018-11-11T14:25:38.525Z,73.70
2018-11-11T14:28:06.817Z,81.43
2018-11-11T14:30:34.564Z,80.93
2018-11-11T14:33:03.485Z,85.37
2018-11-11T14:35:31.857Z,79.63
2018-11-11T14:37:59.604Z,76.90
2018-11-11T14:40:28.514Z,80.00
2018-11-11T14:42:56.845Z,90.17
2018-11-11T14:45:24.593Z,92.13
2018-11-11T14:47:52.955Z,90.27
2018-11-11T14:50:21.866Z,83.00
2018-11-11T14:52:49.577Z,84.10
2018-11-11T14:55:18.599Z,77.03
2018-11-11T14:57:46.883Z,80.23
2018-11-11T15:00:15.254Z,84.87
2018-11-11T15:02:43.587Z,86.50
2018-11-11T15:05:11.901Z,80.77
2018-11-11T15:07:40.225Z,81.90
2018-11-11T15:10:08.554Z,81.57
2018-11-11T15:12:36.875Z,86.20
2018-11-11T15:15:05.242Z,89.57
2018-11-11T15:17:33.591Z,135.57
2018-11-11T15:20:02.131Z,185.17
2018-11-11T15:22:29.677Z,95.90
2018-11-11T15:24:59.478Z,83.53
2018-11-11T15:27:27.224Z,83.87
2018-11-11T15:29:56.155Z,86.07
2018-11-11T15:32:23.896Z,85.50
2018-11-11T15:34:52.215Z,81.37
2018-11-11T15:37:21.117Z,81.80
2018-11-11T15:39:49.441Z,89.37
2018-11-11T15:42:17.828Z,82.20
2018-11-11T15:44:45.587Z,83.77
2018-11-11T15:47:13.850Z,80.97
2018-11-11T15:49:42.221Z,84.93
2018-11-11T15:52:11.234Z,80.23
2018-11-11T15:54:39.444Z,90.23
2018-11-11T15:57:07.714Z,97.03
2018-11-11T15:59:36.124Z,88.83
2018-11-11T16:02:04.805Z,84.67
2018-11-11T16:04:33.110Z,84.30
2018-11-11T16:07:01.759Z,79.63
2018-11-11T16:09:30.096Z,96.23
2018-11-11T16:11:58.416Z,96.30
2018-11-11T16:14:27.562Z,109.00
2018-11-11T16:16:56.205Z,83.27
2018-11-11T16:19:24.548Z,90.77
2018-11-11T16:21:58.173Z,85.00
2018-11-11T16:24:26.555Z,211.77
2018-11-11T16:26:54.316Z,81.20
2018-11-11T16:29:23.235Z,85.07
2018-11-11T16:31:51.566Z,85.30
2018-11-11T16:34:19.938Z,83.07
2018-11-11T16:36:47.681Z,85.03
2018-11-11T16:39:15.967Z,85.20
2018-11-11T16:41:44.282Z,94.50
2018-11-11T16:44:13.197Z,87.87
2018-11-11T16:46:40.943Z,86.33
2018-11-11T16:49:09.275Z,140.90
2018-11-11T16:51:38.252Z,89.40
2018-11-11T16:54:06.541Z,92.73
2018-11-11T16:56:34.272Z,83.77
2018-11-11T16:59:02.601Z,84.43
2018-11-11T17:01:30.923Z,85.70
2018-11-11T17:03:59.877Z,90.50
2018-11-11T17:06:28.239Z,87.33
2018-11-11T17:08:56.100Z,91.63
2018-11-11T17:11:25.024Z,94.00
2018-11-11T17:13:53.362Z,95.70
2018-11-11T17:16:21.770Z,88.77
2018-11-11T17:18:50.095Z,96.50
2018-11-11T17:21:18.473Z,94.20
2018-11-11T17:23:46.794Z,160.00
2018-11-11T17:26:14.545Z,106.73
2018-11-11T17:28:43.474Z,97.97
2018-11-11T17:31:11.222Z,94.13
2018-11-11T17:33:39.569Z,95.50
2018-11-11T17:36:08.540Z,94.43
2018-11-11T17:38:36.816Z,92.73
2018-11-11T17:41:05.144Z,97.73
2018-11-11T17:43:33.483Z,104.27
2018-11-11T17:46:01.233Z,97.13
2018-11-11T17:48:29.571Z,97.53
2018-11-11T17:50:57.886Z,94.73
2018-11-11T17:53:26.799Z,90.27
2018-11-11T17:55:54.565Z,93.33
2018-11-11T17:58:22.885Z,92.93
2018-11-11T18:00:51.937Z,89.90
2018-11-11T18:03:20.284Z,93.67
2018-11-11T18:05:48.616Z,88.30
2018-11-11T18:08:16.371Z,88.93
2018-11-11T18:10:44.771Z,137.33
2018-11-11T18:13:13.632Z,98.00
2018-11-11T18:15:41.378Z,94.57
2018-11-11T18:18:09.737Z,104.63
2018-11-11T18:20:38.171Z,100.53
2018-11-11T18:23:07.027Z,93.37
2018-11-11T18:25:36.356Z,95.10
2018-11-11T18:28:04.755Z,96.33
2018-11-11T18:30:32.432Z,98.37
2018-11-11T18:33:00.762Z,94.30
2018-11-11T18:35:29.734Z,89.43
2018-11-11T18:37:57.463Z,95.33
2018-11-11T18:40:25.796Z,96.13
2018-11-11T18:42:54.923Z,96.17
2018-11-11T18:45:22.730Z,93.30
2018-11-11T18:47:51.661Z,97.70
2018-11-11T18:50:19.402Z,94.73
2018-11-11T18:52:47.738Z,96.20
2018-11-11T18:55:16.652Z,91.17
2018-11-11T18:57:44.605Z,250.27
2018-11-11T19:00:12.808Z,144.00
2018-11-11T19:02:41.672Z,94.83
2018-11-11T19:05:10.018Z,89.50
2018-11-11T19:07:38.447Z,84.10
2018-11-11T19:10:06.202Z,91.90
2018-11-11T19:12:34.468Z,83.37
2018-11-11T19:15:02.816Z,88.80
2018-11-11T19:17:32.644Z,92.57
2018-11-11T19:20:01.002Z,100.27
2018-11-11T19:22:29.341Z,102.00
2018-11-11T19:24:57.706Z,99.97
2018-11-11T19:27:26.143Z,98.90
2018-11-11T19:29:54.447Z,94.97
2018-11-11T19:32:23.095Z,95.00
2018-11-11T19:34:50.849Z,95.83
2018-11-11T19:37:19.185Z,147.67
2018-11-11T19:39:48.165Z,161.33
2018-11-11T19:42:16.516Z,127.63
2018-11-11T19:44:44.898Z,105.53
2018-11-11T19:47:13.236Z,103.23
2018-11-11T19:49:40.994Z,102.33
2018-11-11T19:52:09.360Z,99.87
2018-11-11T19:54:38.290Z,96.33
2018-11-11T19:57:09.890Z,102.30
2018-11-11T19:59:36.400Z,98.07
2018-11-11T20:02:04.771Z,96.87
2018-11-11T20:04:33.225Z,118.83
2018-11-11T20:07:02.381Z,100.13
2018-11-11T20:09:30.743Z,102.93
2018-11-11T20:11:59.066Z,99.23
2018-11-11T20:14:27.401Z,94.43
2018-11-11T20:16:55.757Z,98.90
2018-11-11T20:19:24.100Z,98.47
2018-11-11T20:21:52.439Z,106.23
2018-11-11T20:24:20.890Z,101.97
2018-11-11T20:26:49.222Z,98.67
2018-11-11T20:29:17.579Z,101.83
2018-11-11T20:31:46.095Z,105.50
2018-11-11T20:34:14.423Z,100.30
2018-11-11T20:36:42.699Z,94.00
2018-11-11T20:39:11.038Z,90.27
2018-11-11T20:41:39.463Z,92.20
2018-11-11T20:44:07.832Z,93.03
2018-11-11T20:46:35.708Z,95.97
2018-11-11T20:49:04.706Z,93.93
2018-11-11T20:51:33.086Z,96.13
2018-11-11T20:54:01.413Z,93.77
2018-11-11T20:56:29.908Z,92.00
2018-11-11T20:58:58.635Z,93.17
2018-11-11T21:01:27.211Z,93.07
2018-11-11T21:03:55.666Z,90.77
2018-11-11T21:06:24.092Z,90.23
2018-11-11T21:08:51.878Z,85.33
2018-11-11T21:11:23.037Z,108.67
2018-11-11T21:13:51.613Z,93.60
2018-11-11T21:16:20.004Z,93.87
2018-11-11T21:18:48.509Z,87.37
2018-11-11T21:21:20.183Z,113.67
2018-11-11T21:23:45.963Z,84.13
2018-11-11T21:26:14.633Z,81.93
2018-11-11T21:28:42.772Z,83.87
2018-11-11T21:31:11.101Z,85.77
2018-11-11T21:33:39.441Z,84.60
2018-11-11T21:36:07.841Z,86.27
2018-11-11T21:38:36.137Z,85.53
2018-11-11T21:41:03.934Z,88.63
2018-11-11T21:43:32.838Z,85.80
2018-11-11T21:46:00.652Z,87.77
2018-11-11T21:48:29.555Z,84.93
2018-11-11T21:50:57.529Z,82.17
2018-11-11T21:53:25.881Z,83.77
2018-11-11T21:55:55.185Z,88.03
2018-11-11T21:58:22.838Z,80.90
2018-11-11T22:00:51.648Z,80.40
2018-11-11T22:03:20.356Z,83.53
2018-11-11T22:05:49.426Z,84.50
2018-11-11T22:08:17.184Z,83.17
2018-11-11T22:10:46.137Z,77.67
2018-11-11T22:13:14.530Z,82.10
2018-11-11T22:15:42.900Z,81.73
2018-11-11T22:18:10.722Z,79.83
2018-11-11T22:20:40.080Z,77.40
2018-11-11T22:23:09.093Z,78.20
2018-11-11T22:25:37.566Z,80.20
2018-11-11T22:28:06.361Z,78.83
2018-11-11T22:30:35.118Z,79.43
2018-11-11T22:33:03.588Z,80.63
2018-11-11T22:35:32.185Z,84.13
2018-11-11T22:38:01.336Z,82.13
2018-11-11T22:40:29.872Z,79.73
2018-11-11T22:42:58.478Z,78.53
2018-11-11T22:45:26.961Z,83.40
2018-11-11T22:47:56.315Z,75.80
2018-11-11T22:50:24.915Z,80.63
2018-11-11T22:52:54.271Z,80.23
2018-11-11T22:55:23.973Z,82.80
2018-11-11T22:57:52.432Z,82.20
2018-11-11T23:00:21.697Z,73.53
2018-11-11T23:02:50.035Z,77.43
2018-11-11T23:05:18.372Z,77.63
2018-11-11T23:07:46.703Z,79.03
2018-11-11T23:10:14.450Z,74.83
2018-11-11T23:12:43.469Z,79.40
2018-11-11T23:15:11.220Z,78.17
2018-11-11T23:17:39.556Z,78.20
2018-11-11T23:20:08.517Z,83.63
2018-11-11T23:22:36.300Z,78.13
2018-11-11T23:25:05.207Z,80.07
2018-11-11T23:27:33.594Z,83.37
2018-11-11T23:30:01.343Z,75.90
2018-11-11T23:32:29.672Z,78.63
2018-11-11T23:34:58.937Z,74.33
2018-11-11T23:37:26.987Z,72.87
2018-11-11T23:39:55.729Z,73.13
2018-11-11T23:42:24.057Z,73.33
2018-11-11T23:44:51.831Z,74.80
2018-11-11T23:47:20.897Z,73.30
2018-11-11T23:49:48.699Z,81.13
2018-11-11T23:52:17.097Z,75.10
2018-11-11T23:54:45.433Z,75.17
2018-11-11T23:57:14.375Z,81.17
2018-11-11T23:59:42.711Z,78.00
